PDT,Max TemperatureF,Mean TemperatureF,Min TemperatureF,Max Dew PointF,MeanDew PointF,Min DewpointF,Max Humidity, Mean Humidity, Min Humidity, Max Sea Level PressureIn, Mean Sea Level PressureIn, Min Sea Level PressureIn, Max VisibilityMiles, Mean VisibilityMiles, Min VisibilityMiles, Max Wind SpeedMPH, Mean Wind SpeedMPH, Max Gust SpeedMPH,PrecipitationIn, CloudCover, Events, WindDirDegrees
2013-10-1,61,51,40,49,46,41,100,79,57,30.21,30.11,29.99,10,6,0,14,6,21,0.42,4,Fog-Rain,220
2013-10-2,56,49,41,50,45,39,100,92,83,30.20,30.15,30.09,10,5,0,9,3,17,0.18,6,Fog-Rain-Thunderstorm,211
2013-10-3,60,49,38,48,43,39,100,81,62,30.44,30.32,30.21,10,4,0,13,2,15,0.00,3,Fog,38
2013-10-4,65,50,34,49,41,34,100,72,44,30.48,30.44,30.35,10,4,0,9,2,10,0.00,3,Fog,331
2013-10-5,72,54,36,52,43,36,100,70,40,30.35,30.27,30.15,10,6,0,6,1,13,0.00,0,Fog,292
2013-10-6,74,56,37,55,43,35,100,63,25,30.15,30.08,29.97,10,4,0,28,3,35,0.01,3,Fog,238
2013-10-7,63,56,49,54,49,45,93,75,56,30.16,30.08,30.00,10,10,8,17,9,22,0.03,6,Rain,233
2013-10-8,60,50,39,52,47,41,100,81,62,30.17,30.08,30.01,10,10,8,15,7,18,0.01,6,Rain,246
2013-10-9,62,48,33,46,39,35,100,75,49,30.12,30.07,29.99,10,5,0,8,1,12,0.00,0,Fog,89
2013-10-10,62,53,43,54,48,44,100,78,55,30.12,30.03,29.97,10,10,9,15,2,17,T,8,Rain,252
2013-10-11,59,51,42,47,43,40,100,74,47,30.17,30.14,30.11,10,10,10,6,1,22,0.00,4,,311
2013-10-12,57,49,41,49,47,44,100,84,67,30.19,30.12,30.09,10,10,6,6,2,,0.05,6,Rain,11
2013-10-13,65,50,34,49,40,34,100,72,43,30.32,30.26,30.19,10,5,0,15,2,24,0.00,1,Fog,2
2013-10-14,69,52,35,45,40,36,100,69,37,30.37,30.33,30.29,10,8,1,14,5,26,0.00,0,,349
2013-10-15,69,55,41,43,40,37,86,59,31,30.33,30.24,30.14,10,10,10,15,8,20,0.00,0,,356
2013-10-16,67,52,37,50,44,37,100,76,52,30.17,30.15,30.11,10,8,2,6,1,,0.00,0,,201
2013-10-17,69,53,37,50,43,37,100,76,52,30.25,30.19,30.15,10,3,0,9,2,12,0.00,2,Fog,28
2013-10-18,73,55,36,46,42,36,100,66,31,30.19,30.14,30.09,10,10,7,15,4,,0.00,0,,347
2013-10-19,69,52,34,52,41,34,100,70,40,30.17,30.14,30.10,10,6,0,3,1,9,0.00,0,Fog,272
2013-10-20,65,52,38,53,46,38,100,84,67,30.17,30.11,30.06,10,3,0,6,1,8,0.00,2,Fog,144
2013-10-21,75,58,41,54,46,41,100,69,38,30.11,30.06,29.98,10,4,0,8,2,10,0.00,2,Fog,7
2013-10-22,77,58,39,55,45,39,100,69,38,30.06,30.02,29.96,10,7,0,7,1,9,0.00,0,Fog,333
2013-10-23,71,55,38,55,44,37,100,75,49,30.02,29.99,29.94,10,4,0,7,1,8,0.00,0,Fog,264
2013-10-24,65,54,42,53,48,42,100,84,67,30.11,30.03,30.00,10,4,0,7,2,13,0.00,2,Fog,281
2013-10-25,54,50,46,52,49,46,100,95,89,30.29,30.22,30.12,10,3,0,8,2,10,0.00,8,Fog,12
2013-10-26,54,50,46,50,47,45,93,85,77,30.30,30.25,30.19,10,8,4,10,4,13,0.00,7,,323
2013-10-27,59,53,47,52,46,42,100,79,57,30.19,29.99,29.86,10,8,3,24,9,36,0.03,7,Rain,288
2013-10-28,60,48,36,42,35,29,82,57,31,29.94,29.87,29.83,10,10,10,18,8,29,0.00,0,,18
2013-10-29,61,45,28,35,32,28,92,63,33,30.07,30.01,29.94,10,10,10,8,2,14,0.00,0,,331
2013-10-30,59,44,28,49,36,28,100,76,51,30.20,30.16,30.08,10,8,1,6,0,10,T,3,Rain,-1
2013-10-31,60,55,50,53,50,45,96,86,75,30.29,30.23,30.17,10,8,1,14,3,16,T,8,,222